Titus — WCV9471 — position and weather

sailwx.info

Track history (hours):
 
Tides and Currents Weather Stations Pressure Air Temp Water Temp Dewpoint Dewpoint Depression Visibility Wind Speed Wind Dir Waves Ship Positions

Titus

Owner: Y & S MARINE INC, Belle Chasse, LA. More information available from US FCC via Universal Licensing System and Coast Guard Vessel Documentation Center.

Last reported at 2017-Oct-24 22:00 UTC. Time now 2017-Nov-22 14:50 UTC.
Position N 29°40' W 092°03'.
Warning: this ship's position is 28 days out of date.

Date/timePositionNaut miles runAvg speedWind from/ knotsBaromVisibWave heightAir tempDewpointWater temp
2017-Oct-24 22:00N 29°40' W 092°03'  
2017-Oct-18 07:15N 29°44' W 092°06'416.3
2017-Oct-18 07:00N 29°47' W 092°09'0 0.8
2017-Oct-18 06:30N 29°48' W 092°09'0 0.0
2017-Oct-18 06:00N 29°48' W 092°09'0 0.0
2017-Oct-18 05:30N 29°48' W 092°09'0 0.0
2017-Oct-18 05:00N 29°48' W 092°09'0 0.0
2017-Oct-18 04:30N 29°48' W 092°09'0 0.0
2017-Oct-18 04:00N 29°48' W 092°09'0 0.0
2017-Oct-18 03:30N 29°48' W 092°09'0 0.0
2017-Oct-18 03:00N 29°48' W 092°09'0 0.0
2017-Oct-18 02:30N 29°48' W 092°09'0 0.0
2017-Oct-18 02:00N 29°48' W 092°09'0 0.0
2017-Oct-18 01:30N 29°48' W 092°09'0 0.0
2017-Oct-18 01:00N 29°48' W 092°09'1 1.1
2017-Oct-18 00:30N 29°47' W 092°09'2 3.9
2017-Oct-18 00:00N 29°47' W 092°11'0 0.0
2017-Oct-17 23:30N 29°47' W 092°11'2 3.0
2017-Oct-17 23:00N 29°47' W 092°09'510.4
2017-Oct-17 22:30N 29°43' W 092°05'1 0.1
2017-Oct-17 08:32N 29°42' W 092°05'220.6
2017-Oct-17 08:27N 29°43' W 092°06'510.4
2017-Oct-17 08:00N 29°48' W 092°09'0 0.0
2017-Oct-17 07:30N 29°48' W 092°09'0 0.0
2017-Oct-17 07:00N 29°48' W 092°09'0 0.0
2017-Oct-17 06:30N 29°48' W 092°09'0 0.0
2017-Oct-17 06:00N 29°48' W 092°09'0 0.0
2017-Oct-17 05:30N 29°48' W 092°09'0 0.1
2017-Oct-17 05:00N 29°48' W 092°09'0 0.0
2017-Oct-17 04:30N 29°48' W 092°09'0 0.1
2017-Oct-17 04:00N 29°47' W 092°09'0 0.0
2017-Oct-17 03:30N 29°48' W 092°09'0 0.0
2017-Oct-17 03:00N 29°48' W 092°09'0 0.0
2017-Oct-17 02:30N 29°48' W 092°09'0 0.0
2017-Oct-17 02:00N 29°48' W 092°09'0 0.0
2017-Oct-17 01:30N 29°48' W 092°09'0 0.0
2017-Oct-17 01:00N 29°48' W 092°09'0 0.0
2017-Oct-17 00:30N 29°48' W 092°09'0 0.0
2017-Oct-17 00:00N 29°47' W 092°09'713.6
2017-Oct-16 23:30N 29°42' W 092°04'1 0.0
2017-Oct-16 08:31N 29°42' W 092°05'612.3
2017-Oct-16 08:00N 29°48' W 092°09'0 0.0
2017-Oct-16 07:30N 29°48' W 092°09'0 0.0
2017-Oct-16 07:00N 29°48' W 092°09'0 0.0
2017-Oct-16 06:30N 29°48' W 092°09'0 0.0
2017-Oct-16 06:00N 29°48' W 092°09'0 0.0
2017-Oct-16 05:30N 29°48' W 092°09'0 0.0
2017-Oct-16 05:00N 29°48' W 092°09'0 0.0
2017-Oct-16 04:30N 29°48' W 092°09'0 0.0
2017-Oct-16 04:00N 29°48' W 092°09'2 3.1
2017-Oct-16 03:30N 29°47' W 092°10'1 1.6
2017-Oct-16 03:00N 29°47' W 092°11'1 1.1
2017-Oct-16 02:30N 29°47' W 092°10'611.1
2017-Oct-16 02:01N 29°43' W 092°06'  
Track history (hours):
 
Tides and Currents Weather Stations Pressure Air Temp Water Temp Dewpoint Dewpoint Depression Visibility Wind Speed Wind Dir Waves Ship Positions

Titus

Owner: Y & S MARINE INC, Belle Chasse, LA. More information available from US FCC via Universal Licensing System and Coast Guard Vessel Documentation Center.

Last reported at 2017-Oct-24 22:00 UTC. Time now 2017-Nov-22 14:50 UTC.
Position N 29°40' W 092°03'.
Warning: this ship's position is 28 days out of date.

Date/timePositionNaut miles runAvg speedWind from/ knotsBaromVisibWave heightAir tempDewpointWater temp
2017-Oct-24 22:00N 29°40' W 092°03'  
2017-Oct-18 07:15N 29°44' W 092°06'416.3
2017-Oct-18 07:00N 29°47' W 092°09'0 0.8
2017-Oct-18 06:30N 29°48' W 092°09'0 0.0
2017-Oct-18 06:00N 29°48' W 092°09'0 0.0
2017-Oct-18 05:30N 29°48' W 092°09'0 0.0
2017-Oct-18 05:00N 29°48' W 092°09'0 0.0
2017-Oct-18 04:30N 29°48' W 092°09'0 0.0
2017-Oct-18 04:00N 29°48' W 092°09'0 0.0
2017-Oct-18 03:30N 29°48' W 092°09'0 0.0
2017-Oct-18 03:00N 29°48' W 092°09'0 0.0
2017-Oct-18 02:30N 29°48' W 092°09'0 0.0
2017-Oct-18 02:00N 29°48' W 092°09'0 0.0
2017-Oct-18 01:30N 29°48' W 092°09'0 0.0
2017-Oct-18 01:00N 29°48' W 092°09'1 1.1
2017-Oct-18 00:30N 29°47' W 092°09'2 3.9
2017-Oct-18 00:00N 29°47' W 092°11'0 0.0
2017-Oct-17 23:30N 29°47' W 092°11'2 3.0
2017-Oct-17 23:00N 29°47' W 092°09'510.4
2017-Oct-17 22:30N 29°43' W 092°05'1 0.1
2017-Oct-17 08:32N 29°42' W 092°05'220.6
2017-Oct-17 08:27N 29°43' W 092°06'510.4
2017-Oct-17 08:00N 29°48' W 092°09'0 0.0
2017-Oct-17 07:30N 29°48' W 092°09'0 0.0
2017-Oct-17 07:00N 29°48' W 092°09'0 0.0
2017-Oct-17 06:30N 29°48' W 092°09'0 0.0
2017-Oct-17 06:00N 29°48' W 092°09'0 0.0
2017-Oct-17 05:30N 29°48' W 092°09'0 0.1
2017-Oct-17 05:00N 29°48' W 092°09'0 0.0
2017-Oct-17 04:30N 29°48' W 092°09'0 0.1
2017-Oct-17 04:00N 29°47' W 092°09'0 0.0
2017-Oct-17 03:30N 29°48' W 092°09'0 0.0
2017-Oct-17 03:00N 29°48' W 092°09'0 0.0
2017-Oct-17 02:30N 29°48' W 092°09'0 0.0
2017-Oct-17 02:00N 29°48' W 092°09'0 0.0
2017-Oct-17 01:30N 29°48' W 092°09'0 0.0
2017-Oct-17 01:00N 29°48' W 092°09'0 0.0
2017-Oct-17 00:30N 29°48' W 092°09'0 0.0
2017-Oct-17 00:00N 29°47' W 092°09'713.6
2017-Oct-16 23:30N 29°42' W 092°04'1 0.0
2017-Oct-16 08:31N 29°42' W 092°05'612.3
2017-Oct-16 08:00N 29°48' W 092°09'0 0.0
2017-Oct-16 07:30N 29°48' W 092°09'0 0.0
2017-Oct-16 07:00N 29°48' W 092°09'0 0.0
2017-Oct-16 06:30N 29°48' W 092°09'0 0.0
2017-Oct-16 06:00N 29°48' W 092°09'0 0.0
2017-Oct-16 05:30N 29°48' W 092°09'0 0.0
2017-Oct-16 05:00N 29°48' W 092°09'0 0.0
2017-Oct-16 04:30N 29°48' W 092°09'0 0.0
2017-Oct-16 04:00N 29°48' W 092°09'2 3.1
2017-Oct-16 03:30N 29°47' W 092°10'1 1.6
2017-Oct-16 03:00N 29°47' W 092°11'1 1.1
2017-Oct-16 02:30N 29°47' W 092°10'611.1
2017-Oct-16 02:01N 29°43' W 092°06'  

Dump ship's entire track history